Gil Vicente — CSKG — position and weather

sailwx.info

Track history (hours):
 
Tides and Currents Weather Stations Pressure Air Temp Water Temp Dewpoint Dewpoint Depression Visibility Wind Speed Wind Dir Waves Ship Positions

Gil Vicente

Last reported at 2016-Sep-26 11:33 UTC. Time now 2016-Sep-26 12:15 UTC.
Position N 38°40' W 009°06'.

Length 49 m.

Type: Passenger vessel. MMSI: 263701390.

Date/timePositionNaut miles runAvg speedWind from/ knotsBaromVisibWave heightAir tempDewpointWater temp
2016-Sep-26 11:33N 38°40' W 009°06'1 0.5
2016-Sep-26 08:33N 38°39' W 009°05'  
2016-Sep-23 19:33N 38°42' W 009°08'1 0.6
2016-Sep-23 17:33N 38°41' W 009°08'3 2.9
2016-Sep-23 16:33N 38°39' W 009°05'4 4.1
2016-Sep-23 15:33N 38°42' W 009°08'2 0.8
2016-Sep-23 13:33N 38°41' W 009°08'3 0.7
2016-Sep-23 09:33N 38°39' W 009°05'3 1.1
2016-Sep-23 06:33N 38°41' W 009°08'3 0.1
2016-Sep-22 04:33N 38°39' W 009°05'0 0.0
2016-Sep-22 03:33N 38°39' W 009°05'0 0.0
2016-Sep-22 00:33N 38°39' W 009°05'0 0.0
2016-Sep-21 23:33N 38°39' W 009°05'4 4.0
2016-Sep-21 22:33N 38°42' W 009°08'4 1.3
2016-Sep-21 19:33N 38°39' W 009°05'1 0.4
2016-Sep-21 16:33N 38°40' W 009°06'1 0.2
2016-Sep-21 09:31N 38°39' W 009°05'1 1.1
2016-Sep-21 08:33N 38°40' W 009°06'2 0.1
2016-Sep-20 17:33N 38°41' W 009°08'0 0.1
2016-Sep-20 14:33N 38°41' W 009°08'0 0.1
2016-Sep-20 13:33N 38°41' W 009°08'0 0.0
2016-Sep-20 10:33N 38°41' W 009°08'1 0.4
2016-Sep-20 08:33N 38°40' W 009°07'2 2.2
2016-Sep-20 07:33N 38°42' W 009°08'1 1.5
2016-Sep-20 06:33N 38°41' W 009°08'1 0.1
2016-Sep-19 18:33N 38°42' W 009°08'2 1.1
2016-Sep-19 16:33N 38°40' W 009°07'1 0.4
2016-Sep-19 14:33N 38°40' W 009°06'0 0.0
2016-Sep-19 09:33N 38°40' W 009°06'0 0.2
2016-Sep-19 07:33N 38°40' W 009°07'2 1.6
2016-Sep-19 06:33N 38°39' W 009°05'0 0.0
2016-Sep-18 19:32N 38°39' W 009°05'1 0.4
2016-Sep-18 15:33N 38°40' W 009°06'0 0.1
2016-Sep-18 14:33N 38°40' W 009°06'2 0.0
2016-Sep-16 17:33N 38°41' W 009°08'1 0.4
2016-Sep-16 15:33N 38°42' W 009°08'1 0.3
2016-Sep-16 12:33N 38°41' W 009°08'  
Track history (hours):
 
Tides and Currents Weather Stations Pressure Air Temp Water Temp Dewpoint Dewpoint Depression Visibility Wind Speed Wind Dir Waves Ship Positions

Gil Vicente

Last reported at 2016-Sep-26 11:33 UTC. Time now 2016-Sep-26 12:15 UTC.
Position N 38°40' W 009°06'.

Length 49 m.

Type: Passenger vessel. MMSI: 263701390.

Date/timePositionNaut miles runAvg speedWind from/ knotsBaromVisibWave heightAir tempDewpointWater temp
2016-Sep-26 11:33N 38°40' W 009°06'1 0.5
2016-Sep-26 08:33N 38°39' W 009°05'  
2016-Sep-23 19:33N 38°42' W 009°08'1 0.6
2016-Sep-23 17:33N 38°41' W 009°08'3 2.9
2016-Sep-23 16:33N 38°39' W 009°05'4 4.1
2016-Sep-23 15:33N 38°42' W 009°08'2 0.8
2016-Sep-23 13:33N 38°41' W 009°08'3 0.7
2016-Sep-23 09:33N 38°39' W 009°05'3 1.1
2016-Sep-23 06:33N 38°41' W 009°08'3 0.1
2016-Sep-22 04:33N 38°39' W 009°05'0 0.0
2016-Sep-22 03:33N 38°39' W 009°05'0 0.0
2016-Sep-22 00:33N 38°39' W 009°05'0 0.0
2016-Sep-21 23:33N 38°39' W 009°05'4 4.0
2016-Sep-21 22:33N 38°42' W 009°08'4 1.3
2016-Sep-21 19:33N 38°39' W 009°05'1 0.4
2016-Sep-21 16:33N 38°40' W 009°06'1 0.2
2016-Sep-21 09:31N 38°39' W 009°05'1 1.1
2016-Sep-21 08:33N 38°40' W 009°06'2 0.1
2016-Sep-20 17:33N 38°41' W 009°08'0 0.1
2016-Sep-20 14:33N 38°41' W 009°08'0 0.1
2016-Sep-20 13:33N 38°41' W 009°08'0 0.0
2016-Sep-20 10:33N 38°41' W 009°08'1 0.4
2016-Sep-20 08:33N 38°40' W 009°07'2 2.2
2016-Sep-20 07:33N 38°42' W 009°08'1 1.5
2016-Sep-20 06:33N 38°41' W 009°08'1 0.1
2016-Sep-19 18:33N 38°42' W 009°08'2 1.1
2016-Sep-19 16:33N 38°40' W 009°07'1 0.4
2016-Sep-19 14:33N 38°40' W 009°06'0 0.0
2016-Sep-19 09:33N 38°40' W 009°06'0 0.2
2016-Sep-19 07:33N 38°40' W 009°07'2 1.6
2016-Sep-19 06:33N 38°39' W 009°05'0 0.0
2016-Sep-18 19:32N 38°39' W 009°05'1 0.4
2016-Sep-18 15:33N 38°40' W 009°06'0 0.1
2016-Sep-18 14:33N 38°40' W 009°06'2 0.0
2016-Sep-16 17:33N 38°41' W 009°08'1 0.4
2016-Sep-16 15:33N 38°42' W 009°08'1 0.3
2016-Sep-16 12:33N 38°41' W 009°08'  

Dump ship's entire track history